Acton, Massachusetts
Current Conditions -  °F | °C
As of 12:41 AM on Thursday 27 Nov 2014 (Local Time) from KBED Reporting Station
Light Snow Light Snow  
Wind Chill: -6°   Ceiling: 1600
Heat Index:   Visibility: 2.5mi
Dew Point: -1°   Wind: 16mph
Humidity: 92%   Direction: 340°NNW
Pressure: 29.72"   Gusts: 22mph
Location:  42.49°N, 71.43°W
Report Text: KBED 270541Z 34014G19KT 2 1/2SM -SN BR SCT009 OVC016 00/M01 A2972 RMK AO2 P0000 T00001011
Loading
Personal Weather Stations






























Interactive Weather Map New forecast layout! Learn more

10-Day Weather Forecast

Advertisements
Track Severe Weather on mobile